This is the latest recevied weather packets stored in our database for station/object F8KGK-5. If no packets are shown the sender has not sent any weather packets the latest 10 day(s).
| Time | Temp. | Humidity | Pressure | Rain* | Wind** | Luminosity | Snow |
|---|---|---|---|---|---|---|---|
| 1787512383 | 18.89° C | 49% | 1015.2 hPa | 0 mm | - | - | - |
| 1787510583 | 19.44° C | 47% | 1015.3 hPa | 0 mm | - | - | - |
| 1787508782 | 20.56° C | 44% | 1015.4 hPa | 0 mm | - | - | - |
| 1787506982 | 21.11° C | 43% | 1015.2 hPa | 0 mm | - | - | - |
| 1787505183 | 21.67° C | 41% | 1015.3 hPa | 0 mm | - | - | - |
| 1787503382 | 22.22° C | 40% | 1015.5 hPa | 0 mm | - | - | - |
| 1787501583 | 22.22° C | 40% | 1015.6 hPa | 0 mm | - | - | - |
| 1787499782 | 22.78° C | 39% | 1015.9 hPa | 0 mm | - | - | - |
| 1787497983 | 22.78° C | 39% | 1016.1 hPa | 0 mm | - | - | - |
| 1787496183 | 27.22° C | 31% | 1016.3 hPa | 0 mm | - | - | - |
| 1787494382 | 28.89° C | 30% | 1016.4 hPa | 0 mm | - | - | - |
| 1787492581 | 30° C | 29% | 1016.8 hPa | 0 mm | - | - | - |
| 1787490782 | 28.89° C | 30% | 1016.9 hPa | 0 mm | - | - | - |
| 1787488983 | 30° C | 30% | 1017.3 hPa | 0 mm | - | - | - |
| 1787487183 | 28.33° C | 31% | 1017.3 hPa | 0 mm | - | - | - |
| 1787485381 | 27.78° C | 34% | 1017.4 hPa | 0 mm | - | - | - |
| 1787483582 | 26.67° C | 37% | 1017.5 hPa | 0 mm | - | - | - |
| 1787481783 | 25.56° C | 40% | 1017.8 hPa | 0 mm | - | - | - |
| 1787479982 | 22.22° C | 45% | 1018 hPa | 0 mm | - | - | - |
| 1787478182 | 22.78° C | 44% | 1018.2 hPa | 0 mm | - | - | - |
| 1787476381 | 20.56° C | 50% | 1018.1 hPa | 0 mm | - | - | - |
| 1787474581 | 20° C | 55% | 1018.4 hPa | 0 mm | - | - | - |
| 1787473565 | 19.44° C | 56% | 1018.2 hPa | 0 mm | - | - | - |
| 1787472454 | 19.44° C | 56% | 1018.3 hPa | 0 mm | - | - | - |
| 1787470655 | 16.67° C | 69% | 1018.1 hPa | 0 mm | - | - | - |
* Rain latest hour (hover to see other rain measurements)
** Current wind speed in m/s (hover to see current wind gust speed)